Time;durP1;ratioP1;P1;durP2;ratioP2;P2;SDS_P1;SDS_P2;PMS_P1;PMS_P2;Temp;Humidity;BMP_temperature;BMP_pressure;BME280_temperature;BME280_humidity;BME280_pressure;Samples;Min_cycle;Max_cycle;Signal;HPM_P1;HPM_P2
2023/04/10 07:01:46;;;;;;;0.97;0.97;;;11.50;99.90;14.00;101533.00;;;;6217055;23;20167;-69
2023/04/10 07:04:21;;;;;;;0.90;0.90;;;11.50;99.90;14.20;101455.00;;;;6071206;23;20837;-69
2023/04/10 07:06:50;;;;;;;0.23;0.23;;;11.60;99.90;13.90;101515.00;;;;6180983;23;20238;-69
2023/04/10 07:09:42;;;;;;;0.87;0.87;;;11.60;99.90;14.10;101518.00;;;;6189694;23;20168;-69
2023/04/10 07:12:32;;;;;;;0.40;0.40;;;11.80;99.90;14.40;101515.00;;;;6190958;23;20184;-69
2023/04/10 07:15:11;;;;;;;0.30;0.30;;;11.80;99.90;14.60;101523.00;;;;6190420;23;20165;-69
2023/04/10 07:17:47;;;;;;;0.87;0.87;;;12.00;99.90;14.70;101516.00;;;;6165516;23;20533;-69
2023/04/10 07:20:18;;;;;;;0.47;0.47;;;12.10;99.90;14.60;101510.00;;;;6216428;23;20171;-69
2023/04/10 07:23:10;;;;;;;1.03;0.83;;;12.00;99.90;14.60;101502.00;;;;6215450;23;20150;-69
2023/04/10 07:25:53;;;;;;;0.50;0.50;;;11.90;99.90;15.10;101505.00;;;;6217073;23;20163;-69
2023/04/10 07:28:32;;;;;;;1.13;1.03;;;12.20;99.90;14.60;101474.00;;;;6215632;23;20670;-69
2023/04/10 07:31:01;;;;;;;0.30;0.30;;;12.20;99.90;14.90;101490.00;;;;6216996;23;20158;-66
2023/04/10 07:33:55;;;;;;;1.00;1.00;;;12.30;99.90;14.00;101513.00;;;;6216796;23;20171;-69
2023/04/10 07:36:38;;;;;;;0.53;0.53;;;12.10;99.90;14.80;101483.00;;;;6176643;23;20173;-69
2023/04/10 07:39:21;;;;;;;1.17;0.60;;;12.20;99.90;14.80;101461.00;;;;6216105;23;20162;-69
2023/04/10 07:42:21;;;;;;;0.90;0.90;;;12.30;99.90;14.80;101502.00;;;;6217070;23;20157;-69
2023/04/10 07:45:11;;;;;;;1.53;0.53;;;12.30;99.90;14.90;101493.00;;;;6189603;23;20162;-69
2023/04/10 07:47:37;;;;;;;0.80;0.40;;;12.40;99.90;15.30;101494.00;;;;6216016;23;20730;-70
2023/04/10 07:50:03;;;;;;;0.70;0.70;;;12.40;99.90;15.40;101487.00;;;;6216793;23;20589;-70
2023/04/10 07:52:43;;;;;;;0.90;0.90;;;12.60;99.90;15.40;101482.00;;;;6217051;23;20174;-70
2023/04/10 07:55:21;;;;;;;0.20;0.20;;;12.80;99.90;15.80;101492.00;;;;6165111;23;20509;-69
2023/04/10 07:57:52;;;;;;;0.30;0.30;;;12.90;99.90;16.10;101473.00;;;;6190727;23;20154;-69
2023/04/10 08:00:29;;;;;;;1.87;0.87;;;13.30;99.90;16.30;101480.00;;;;6197909;23;20168;-70
2023/04/10 08:03:04;;;;;;;0.40;0.40;;;13.40;99.90;16.00;101479.00;;;;6160506;23;20167;-69
2023/04/10 08:05:42;;;;;;;2.10;1.13;;;13.50;99.90;16.10;101478.00;;;;6159914;23;20153;-69
2023/04/10 08:08:37;;;;;;;0.57;0.33;;;13.60;99.90;17.00;101467.00;;;;6160050;23;20166;-69
2023/04/10 08:11:29;;;;;;;0.93;0.93;;;13.80;99.90;16.80;101469.00;;;;6122818;23;20243;-69
2023/04/10 08:14:09;;;;;;;1.43;0.77;;;13.80;99.90;16.50;101435.00;;;;6187253;23;20198;-69
2023/04/10 08:16:45;;;;;;;1.33;1.23;;;13.80;99.90;17.10;101427.00;;;;6186082;23;20148;-69
2023/04/10 08:19:11;;;;;;;0.30;0.30;;;13.80;99.90;16.80;101432.00;;;;6160690;23;20151;-69
2023/04/10 08:21:37;;;;;;;0.20;0.20;;;13.70;99.90;17.00;101434.00;;;;6159769;23;20153;-69
2023/04/10 08:24:46;;;;;;;1.30;1.20;;;13.80;99.90;16.60;101457.00;;;;6186761;23;20168;-69
2023/04/10 08:27:15;;;;;;;1.10;0.87;;;13.80;99.90;16.50;101452.00;;;;6137515;23;20159;-69
2023/04/10 08:30:18;;;;;;;1.30;1.30;;;13.70;99.90;16.30;101445.00;;;;6159418;23;20171;-69
2023/04/10 08:33:26;;;;;;;0.10;0.10;;;13.60;99.90;16.30;101454.00;;;;6160210;23;20174;-69
2023/04/10 08:36:31;;;;;;;0.70;0.70;;;13.70;99.90;17.20;101438.00;;;;6157784;23;20168;-69
2023/04/10 08:39:40;;;;;;;2.83;1.70;;;13.90;99.90;16.80;101450.00;;;;6129990;23;20188;-70
2023/04/10 08:42:23;;;;;;;0.73;0.73;;;14.10;99.90;16.40;101464.00;;;;6128057;23;20214;-69
2023/04/10 08:45:36;;;;;;;0.43;0.43;;;13.90;99.90;16.00;101467.00;;;;6159661;23;20174;-69
2023/04/10 08:48:46;;;;;;;0.40;0.40;;;13.80;99.90;16.40;101456.00;;;;6161970;23;20227;-70
2023/04/10 08:52:05;;;;;;;1.40;0.93;;;13.80;99.90;16.00;101476.00;;;;6159156;23;20603;-70
2023/04/10 08:55:04;;;;;;;0.57;0.57;;;13.80;99.90;15.70;101444.00;;;;6160547;23;20161;-69
2023/04/10 08:58:14;;;;;;;0.67;0.47;;;13.60;99.90;16.10;101455.00;;;;6155825;23;20324;-64
2023/04/10 09:01:21;;;;;;;0.80;0.30;;;13.60;99.90;16.50;101438.00;;;;6159432;23;20168;-67
2023/04/10 09:04:05;;;;;;;1.23;1.20;;;13.90;99.90;16.40;101425.00;;;;6156255;23;20225;-69
2023/04/10 09:07:55;;;;;;;1.33;1.23;;;14.20;99.90;16.50;101444.00;;;;6158564;23;20496;-70
2023/04/10 09:11:12;;;;;;;0.50;0.50;;;14.40;99.90;16.90;101433.00;;;;6162694;23;20175;-70
2023/04/10 09:14:25;;;;;;;0.67;0.67;;;14.40;99.90;16.40;101441.00;;;;6159691;23;20208;-68
2023/04/10 09:17:25;;;;;;;1.07;1.07;;;14.20;99.90;16.50;101445.00;;;;6135606;23;20617;-78
2023/04/10 09:21:07;;;;;;;1.43;0.87;;;14.30;99.90;16.80;101440.00;;;;6151064;23;20168;-75
2023/04/10 09:24:21;;;;;;;0.30;0.30;;;14.30;99.90;17.30;101412.00;;;;6143610;23;20170;-76
2023/04/10 09:27:30;;;;;;;2.30;2.20;;;14.50;99.90;17.00;101433.00;;;;6158733;23;20169;-77
2023/04/10 09:30:42;;;;;;;2.50;2.30;;;14.40;99.90;16.80;101438.00;;;;6132965;23;20175;-78
2023/04/10 09:33:29;;;;;;;1.83;1.10;;;14.60;99.90;16.70;101430.00;;;;6116076;23;20187;-73
2023/04/10 09:37:00;;;;;;;1.50;1.07;;;14.50;99.90;17.00;101422.00;;;;6160055;23;20172;-70
2023/04/10 09:40:21;;;;;;;0.13;0.13;;;14.50;99.90;17.60;101407.00;;;;6166362;23;20137;-86
2023/04/10 09:43:24;;;;;;;0.83;0.83;;;14.80;99.90;17.60;101409.00;;;;6143961;23;20162;-86
2023/04/10 09:46:25;;;;;;;0.73;0.73;;;15.00;99.90;17.70;101403.00;;;;6128217;23;20219;-86
2023/04/10 09:49:22;;;;;;;1.03;0.97;;;15.00;99.90;17.50;101388.00;;;;6126591;23;20170;-86
2023/04/10 09:51:57;;;;;;;0.53;0.50;;;15.10;99.90;17.70;101376.00;;;;6150873;23;20467;-87
2023/04/10 09:54:58;;;;;;;0.67;0.63;;;15.20;99.90;17.30;101364.00;;;;6134225;23;20168;-86
2023/04/10 09:57:34;;;;;;;0.43;0.43;;;15.10;99.90;17.70;101373.00;;;;6157108;23;20164;-80
2023/04/10 10:00:26;;;;;;;0.80;0.80;;;15.20;99.90;17.40;101312.00;;;;6184234;23;20574;-75
2023/04/10 10:03:13;;;;;;;0.83;0.83;;;15.40;99.90;17.90;101350.00;;;;6080994;23;20168;-84
2023/04/10 10:06:30;;;;;;;1.13;0.93;;;15.50;99.90;18.00;101344.00;;;;6132710;23;20168;-75
2023/04/10 10:09:22;;;;;;;4.43;2.27;;;15.50;99.90;17.40;101333.00;;;;6134565;23;20478;-80
2023/04/10 10:12:13;;;;;;;3.67;2.20;;;15.40;99.90;17.50;101362.00;;;;6134120;23;20159;-80
2023/04/10 10:14:59;;;;;;;1.37;1.00;;;15.30;99.90;18.30;101349.00;;;;6133679;23;20267;-83
2023/04/10 10:18:02;;;;;;;1.53;0.93;;;15.50;99.90;18.20;101357.00;;;;6134499;23;20171;-81
2023/04/10 10:34:05;;;;;;;2.07;1.87;;;15.30;99.90;18.10;101272.00;;;;5107569;27;20544;-76
2023/04/10 10:37:10;;;;;;;1.23;1.13;;;15.70;99.90;18.70;101276.00;;;;5066546;28;20198;-64
2023/04/10 10:40:23;;;;;;;0.57;0.57;;;16.00;99.90;18.80;101274.00;;;;5070191;28;20300;-72
2023/04/10 10:43:36;;;;;;;0.93;0.83;;;16.20;99.90;19.50;101269.00;;;;5085020;28;20746;-71
2023/04/10 10:46:39;;;;;;;0.30;0.30;;;16.50;99.90;19.50;101254.00;;;;5100031;28;20191;-71
2023/04/10 10:49:54;;;;;;;2.93;1.83;;;16.50;99.90;18.60;101272.00;;;;5065111;28;20187;-71
2023/04/10 10:52:44;;;;;;;2.30;2.07;;;16.50;99.90;19.00;101260.00;;;;5095390;28;20210;-71
2023/04/10 10:58:53;;;;;;;1.37;1.27;;;16.50;99.90;18.50;101248.00;;;;5077812;28;20283;-71
2023/04/10 11:02:14;;;;;;;1.80;1.20;;;16.30;99.90;19.20;101243.00;;;;5090808;28;20436;-71
2023/04/10 11:05:24;;;;;;;1.03;0.73;;;16.40;99.90;18.50;101244.00;;;;5076810;28;20461;-71
2023/04/10 11:08:00;;;;;;;0.83;0.83;;;16.40;99.90;18.10;101259.00;;;;5084527;28;20672;-71
2023/04/10 11:11:07;;;;;;;2.10;1.57;;;16.10;99.90;18.10;101251.00;;;;5104306;28;20197;-71
2023/04/10 11:13:58;;;;;;;2.53;1.90;;;16.10;99.90;17.90;101258.00;;;;5085660;28;20260;-72
2023/04/10 11:16:33;;;;;;;1.30;1.20;;;16.00;99.90;18.50;101249.00;;;;5085459;28;20204;-71
2023/04/10 11:19:06;;;;;;;1.17;0.87;;;16.10;99.90;18.50;101187.00;;;;5086070;28;20635;-72
2023/04/10 11:21:34;;;;;;;1.60;1.50;;;16.10;99.90;18.40;101237.00;;;;5087606;28;20298;-72
2023/04/10 11:24:09;;;;;;;0.80;0.80;;;16.20;99.90;18.80;101236.00;;;;5082149;28;20168;-72
2023/04/10 11:26:50;;;;;;;0.67;0.60;;;16.30;99.90;18.60;101236.00;;;;5076303;28;20198;-72
2023/04/10 11:29:16;;;;;;;1.30;1.20;;;16.40;99.90;18.60;101235.00;;;;5071823;28;20235;-72
2023/04/10 11:32:04;;;;;;;0.27;0.27;;;16.30;99.90;18.50;101239.00;;;;5084302;28;20770;-71
2023/04/10 11:34:54;;;;;;;1.50;1.20;;;16.30;99.90;18.30;101239.00;;;;5072622;28;20190;-71
2023/04/10 11:37:49;;;;;;;0.20;0.20;;;16.40;99.90;18.70;101231.00;;;;5081830;28;20269;-72
2023/04/10 11:41:02;;;;;;;1.13;0.93;;;16.30;99.90;19.30;101209.00;;;;5072539;28;20260;-72
2023/04/10 11:43:40;;;;;;;0.67;0.67;;;16.40;99.90;18.10;101230.00;;;;5060291;28;20206;-72
2023/04/10 11:46:52;;;;;;;0.17;0.17;;;16.30;99.90;18.80;101210.00;;;;5073210;28;20199;-71
2023/04/10 11:49:49;;;;;;;1.53;0.90;;;16.30;99.90;19.10;101192.00;;;;5085372;28;20205;-71
2023/04/10 11:52:32;;;;;;;1.07;1.00;;;16.40;99.90;18.70;101199.00;;;;5059640;28;20746;-72
2023/04/10 11:55:39;;;;;;;0.47;0.47;;;16.40;99.90;19.20;101216.00;;;;5068723;28;20187;-71
2023/04/10 11:58:30;;;;;;;1.57;1.47;;;16.40;99.90;18.60;101206.00;;;;5065762;28;20207;-71
2023/04/10 12:01:03;;;;;;;0.20;0.20;;;16.30;99.90;18.90;101226.00;;;;5056917;28;20223;-71
2023/04/10 12:03:50;;;;;;;1.83;1.73;;;16.30;99.90;18.60;101208.00;;;;5066318;28;20185;-70
2023/04/10 12:06:19;;;;;;;0.30;0.30;;;16.30;99.90;18.70;101232.00;;;;5064673;28;20186;-71
2023/04/10 12:08:57;;;;;;;0.10;0.10;;;16.30;99.90;19.30;101200.00;;;;5062513;28;20184;-70
2023/04/10 12:11:31;;;;;;;0.30;0.30;;;16.20;99.90;18.40;101186.00;;;;5066992;28;20199;-70
2023/04/10 12:14:00;;;;;;;1.50;0.90;;;16.00;99.90;17.40;101176.00;;;;5068247;28;20245;-70
2023/04/10 12:16:28;;;;;;;0.87;0.87;;;15.40;99.90;17.10;101160.00;;;;5073445;28;20185;-70
2023/04/10 12:18:57;;;;;;;1.13;1.13;;;15.20;99.90;17.50;101104.00;;;;5073694;28;20231;-71
2023/04/10 12:21:26;;;;;;;1.10;1.03;;;15.20;99.90;17.10;101104.00;;;;5062103;28;20187;-70
2023/04/10 12:23:55;;;;;;;2.30;1.70;;;15.10;99.90;16.90;101031.00;;;;5050105;28;20235;-70
2023/04/10 12:26:29;;;;;;;1.17;0.80;;;15.00;99.90;17.80;101090.00;;;;5073540;28;20212;-70
2023/04/10 12:28:58;;;;;;;0.70;0.70;;;15.10;99.90;17.80;101093.00;;;;5065130;28;20202;-70
2023/04/10 12:31:35;;;;;;;1.47;1.33;;;15.20;99.90;17.50;101085.00;;;;5064421;28;20222;-70
2023/04/10 12:34:04;;;;;;;0.60;0.60;;;15.20;99.90;17.40;101071.00;;;;5055541;28;20511;-70
2023/04/10 12:36:53;;;;;;;0.37;0.37;;;15.10;99.90;17.50;101082.00;;;;5066535;28;20259;-70
2023/04/10 12:39:29;;;;;;;2.10;0.57;;;15.10;99.90;17.50;101072.00;;;;5056877;28;20272;-70
2023/04/10 12:42:16;;;;;;;0.50;0.50;;;15.20;99.90;17.10;101047.00;;;;5065362;28;20197;-70
2023/04/10 12:44:59;;;;;;;5.07;1.30;;;15.00;99.90;16.90;101061.00;;;;5057853;28;20186;-70
2023/04/10 12:47:32;;;;;;;2.40;1.17;;;14.90;99.90;17.00;101041.00;;;;5071776;28;20567;-70
2023/04/10 12:50:19;;;;;;;1.13;1.03;;;14.90;99.90;17.30;101049.00;;;;5081575;28;20185;-69
2023/04/10 12:53:12;;;;;;;0.30;0.30;;;15.00;99.90;17.30;101027.00;;;;5059384;28;20207;-69
2023/04/10 12:56:05;;;;;;;1.63;1.07;;;15.00;99.90;17.30;101022.00;;;;5068447;28;20264;-69
2023/04/10 12:58:33;;;;;;;0.50;0.43;;;14.90;99.90;17.70;101025.00;;;;5058748;28;20188;-70
2023/04/10 13:01:08;;;;;;;0.50;0.30;;;15.00;99.90;17.80;101019.00;;;;5072332;28;20213;-69
2023/04/10 13:03:42;;;;;;;1.17;1.13;;;15.20;99.90;17.10;100995.00;;;;5064114;28;20274;-70
2023/04/10 13:06:28;;;;;;;0.23;0.23;;;15.10;99.90;17.50;101011.00;;;;5065294;28;20202;-69
2023/04/10 13:09:16;;;;;;;0.40;0.40;;;15.10;99.90;17.50;101024.00;;;;5056937;28;20215;-70
2023/04/10 13:11:43;;;;;;;0.30;0.30;;;15.20;99.90;16.80;100997.00;;;;5064838;28;20690;-70
2023/04/10 13:14:11;;;;;;;0.30;0.30;;;14.90;99.90;17.30;100993.00;;;;5066281;28;20193;-70
2023/04/10 13:16:37;;;;;;;1.43;1.30;;;15.00;99.90;17.10;100952.00;;;;5068354;28;20571;-69
2023/04/10 13:19:03;;;;;;;0.30;0.30;;;15.00;99.90;17.30;100978.00;;;;5056175;28;20217;-70
2023/04/10 13:21:32;;;;;;;0.43;0.43;;;14.90;99.90;16.80;100979.00;;;;5085701;28;20189;-70
2023/04/10 13:23:58;;;;;;;1.47;1.27;;;14.80;99.90;16.90;100963.00;;;;5057553;28;20532;-69
2023/04/10 13:26:24;;;;;;;0.80;0.80;;;14.80;99.90;16.70;100944.00;;;;5061663;28;20189;-69
2023/04/10 13:29:28;;;;;;;2.00;1.90;;;14.60;99.90;17.30;100898.00;;;;5055967;28;20257;-69
2023/04/10 13:31:56;;;;;;;0.67;0.67;;;14.70;99.90;17.00;100931.00;;;;5066613;28;20696;-69
2023/04/10 13:34:24;;;;;;;1.07;0.57;;;14.60;99.90;16.80;100940.00;;;;5065014;28;20184;-70
2023/04/10 13:36:50;;;;;;;1.90;1.10;;;14.60;99.90;17.00;100903.00;;;;5069845;28;20217;-70
2023/04/10 13:39:17;;;;;;;0.63;0.63;;;14.60;99.90;17.10;100916.00;;;;5068398;28;20199;-69
2023/04/10 13:41:45;;;;;;;1.70;1.23;;;14.60;99.90;17.30;100893.00;;;;5051782;28;20188;-69
2023/04/10 13:44:18;;;;;;;0.97;0.97;;;14.60;99.90;17.40;100890.00;;;;5056673;28;20207;-69
2023/04/10 13:47:11;;;;;;;1.90;1.80;;;14.70;99.90;17.20;100844.00;;;;5055606;28;20248;-70
2023/04/10 13:49:55;;;;;;;0.93;0.57;;;14.80;99.90;17.50;100905.00;;;;5067107;28;20201;-69
2023/04/10 13:52:41;;;;;;;0.30;0.30;;;14.80;99.90;17.80;100914.00;;;;5070408;28;20207;-69
2023/04/10 13:55:16;;;;;;;0.23;0.23;;;15.10;99.90;17.80;100903.00;;;;5046967;28;20597;-69
2023/04/10 13:58:10;;;;;;;1.93;1.00;;;15.10;99.90;17.70;100904.00;;;;5066728;28;20630;-69
2023/04/10 14:00:44;;;;;;;0.20;0.20;;;15.20;99.90;18.10;100901.00;;;;5064678;28;20272;-68
2023/04/10 14:03:11;;;;;;;0.10;0.10;;;15.30;99.90;18.40;100887.00;;;;5069819;28;20219;-68
2023/04/10 14:06:23;;;;;;;0.23;0.23;;;15.40;99.90;19.00;100909.00;;;;5047833;28;20182;-69
2023/04/10 14:09:36;;;;;;;0.10;0.10;;;15.80;99.90;19.00;100896.00;;;;5058427;28;20180;-69
2023/04/10 14:12:56;;;;;;;0.70;0.70;;;16.00;99.90;18.50;100887.00;;;;5060775;28;20569;-68
2023/04/10 14:15:45;;;;;;;0.10;0.10;;;15.90;99.90;18.00;100890.00;;;;5056662;28;20568;-69
2023/04/10 14:18:37;;;;;;;0.20;0.20;;;15.70;99.90;18.60;100899.00;;;;5064955;28;20649;-68
2023/04/10 14:21:07;;;;;;;0.97;0.87;;;15.70;99.90;18.00;100899.00;;;;5074715;28;20656;-68
2023/04/10 14:23:41;;;;;;;2.00;1.47;;;15.80;99.90;17.40;100874.00;;;;5071672;28;20204;-70
2023/04/10 14:26:20;;;;;;;0.13;0.13;;;15.60;99.90;18.30;100910.00;;;;5071697;28;20666;-73
2023/04/10 14:28:51;;;;;;;0.20;0.20;;;15.70;99.90;19.30;100939.00;;;;5071462;28;20186;-72
2023/04/10 14:31:21;;;;;;;0.77;0.77;;;16.00;99.90;18.30;100930.00;;;;5071319;28;21107;-71
2023/04/10 14:33:48;;;;;;;2.60;1.87;;;16.10;99.90;18.40;100946.00;;;;5057960;28;20284;-68
2023/04/10 14:36:17;;;;;;;0.77;0.77;;;16.00;99.90;17.70;100926.00;;;;5070341;28;20562;-69
2023/04/10 14:38:48;;;;;;;0.40;0.40;;;15.60;99.90;17.70;100924.00;;;;5052377;28;20669;-71
2023/04/10 14:41:17;;;;;;;0.10;0.10;;;15.50;99.90;17.80;100874.00;;;;5070397;28;20277;-68
2023/04/10 14:43:43;;;;;;;1.73;1.63;;;15.20;99.90;15.90;100907.00;;;;5071064;28;20190;-66
2023/04/10 14:46:14;;;;;;;4.93;2.40;;;14.60;99.90;15.80;100881.00;;;;5071714;28;20273;-66
2023/04/10 14:48:49;;;;;;;0.90;0.90;;;14.40;99.90;16.20;100887.00;;;;5053037;28;20191;-66
2023/04/10 14:51:30;;;;;;;2.60;1.53;;;14.10;99.90;15.30;100871.00;;;;5067791;28;20271;-66
2023/04/10 14:54:07;;;;;;;2.20;2.00;;;13.80;99.90;14.60;100861.00;;;;5054293;28;20402;-69
2023/04/10 14:56:56;;;;;;;2.23;1.53;;;13.70;99.90;15.20;100847.00;;;;5057319;28;20186;-71
2023/04/10 14:59:22;;;;;;;1.60;0.90;;;13.60;99.90;15.60;100866.00;;;;5059621;28;20518;-71
2023/04/10 15:01:56;;;;;;;3.77;2.70;;;13.60;99.90;14.20;100865.00;;;;5066943;28;20247;-70
2023/04/10 15:05:00;;;;;;;5.93;4.03;;;13.40;99.90;15.00;100869.00;;;;5082284;28;20232;-71
2023/04/10 15:07:40;;;;;;;0.30;0.30;;;13.30;99.90;16.00;100872.00;;;;5082739;28;20217;-71
2023/04/10 15:10:15;;;;;;;0.97;0.93;;;13.50;99.90;16.00;100822.00;;;;5061603;28;20170;-68
2023/04/10 15:12:44;;;;;;;0.97;0.80;;;13.60;99.90;15.90;100863.00;;;;5065728;28;20198;-68
2023/04/10 15:15:12;;;;;;;2.73;2.10;;;13.80;99.90;15.30;100853.00;;;;5057441;28;20191;-67
2023/04/10 15:18:34;;;;;;;4.43;1.90;;;13.50;99.90;15.20;100850.00;;;;5067019;28;20576;-68
2023/04/10 15:21:31;;;;;;;0.70;0.70;;;13.60;99.90;15.60;100859.00;;;;5060540;28;20232;-69
2023/04/10 15:24:40;;;;;;;0.30;0.30;;;13.70;99.90;15.30;100857.00;;;;5074707;28;20182;-68
2023/04/10 15:27:49;;;;;;;1.37;1.30;;;13.60;99.90;15.60;100854.00;;;;5057384;28;20185;-68
2023/04/10 15:30:37;;;;;;;1.33;1.23;;;13.40;99.90;15.40;100809.00;;;;5061249;28;20241;-69
2023/04/10 15:33:03;;;;;;;0.30;0.30;;;13.30;99.90;15.10;100845.00;;;;5079677;28;20234;-69
2023/04/10 15:35:37;;;;;;;0.40;0.30;;;13.20;99.90;15.10;100816.00;;;;5064571;28;20228;-68
2023/04/10 15:38:11;;;;;;;1.43;0.87;;;13.20;99.90;15.30;100839.00;;;;5072131;28;20283;-68
2023/04/10 15:40:53;;;;;;;0.47;0.47;;;13.20;99.90;15.70;100845.00;;;;5080062;28;20185;-69
2023/04/10 15:43:24;;;;;;;0.70;0.70;;;13.30;99.90;15.30;100832.00;;;;5068475;28;20189;-70
2023/04/10 15:46:02;;;;;;;1.27;1.20;;;13.20;99.90;14.60;100827.00;;;;5067099;28;20256;-67
2023/04/10 15:49:06;;;;;;;1.57;1.47;;;13.00;99.90;14.20;100784.00;;;;5065481;28;20185;-68
2023/04/10 15:51:56;;;;;;;0.30;0.30;;;12.80;99.90;15.00;100772.00;;;;5061720;28;20609;-68
2023/04/10 15:55:05;;;;;;;0.70;0.70;;;13.00;99.90;14.20;100805.00;;;;5053965;28;20191;-68
2023/04/10 15:58:14;;;;;;;2.57;2.37;;;12.70;99.90;14.60;100793.00;;;;5069094;28;20186;-69
2023/04/10 16:01:20;;;;;;;0.63;0.63;;;12.80;99.90;14.80;100793.00;;;;5065310;28;20206;-69
2023/04/10 16:04:29;;;;;;;0.87;0.87;;;12.80;99.90;14.20;100793.00;;;;5069669;28;20190;-69
2023/04/10 16:07:37;;;;;;;1.00;1.00;;;12.60;99.90;14.50;100802.00;;;;5013247;28;20198;-68
2023/04/10 16:10:41;;;;;;;0.50;0.50;;;12.60;99.90;13.80;100759.00;;;;5068329;28;20234;-68
2023/04/10 16:13:51;;;;;;;0.83;0.83;;;12.50;99.90;14.70;100792.00;;;;5058308;28;20769;-68
2023/04/10 16:17:09;;;;;;;0.60;0.60;;;12.70;99.90;14.70;100791.00;;;;5066752;28;20730;-69
2023/04/10 16:20:18;;;;;;;0.50;0.50;;;12.70;99.90;14.50;100788.00;;;;5071546;28;20668;-68
2023/04/10 16:23:15;;;;;;;0.80;0.80;;;12.70;99.90;13.90;100740.00;;;;5054203;28;20222;-69
2023/04/10 16:26:13;;;;;;;0.50;0.50;;;12.60;99.90;13.90;100789.00;;;;5038857;28;20204;-69
2023/04/10 16:29:05;;;;;;;0.87;0.87;;;12.40;99.90;14.40;100795.00;;;;5064745;28;20745;-68
2023/04/10 16:31:51;;;;;;;0.50;0.50;;;12.50;99.90;14.80;100792.00;;;;5064528;28;20752;-68
2023/04/10 16:34:57;;;;;;;1.47;1.37;;;12.70;99.90;14.60;100800.00;;;;5056866;28;20228;-69
2023/04/10 16:37:56;;;;;;;0.40;0.40;;;12.60;99.90;15.20;100798.00;;;;5086466;28;20630;-69
2023/04/10 16:40:48;;;;;;;1.20;1.10;;;12.90;99.90;15.30;100747.00;;;;5065958;28;20196;-69
2023/04/10 16:43:51;;;;;;;0.63;0.63;;;13.00;99.90;14.20;100785.00;;;;5071725;28;20199;-68
2023/04/10 16:46:57;;;;;;;1.30;1.10;;;12.70;99.90;14.50;100770.00;;;;5056111;28;20198;-69
2023/04/10 16:50:08;;;;;;;0.60;0.60;;;12.60;99.90;14.60;100780.00;;;;5066259;28;20203;-69
2023/04/10 16:53:47;;;;;;;1.20;1.13;;;12.60;99.90;14.50;100777.00;;;;5067652;28;20208;-69
2023/04/10 16:56:53;;;;;;;0.87;0.80;;;12.50;99.90;14.20;100788.00;;;;5061399;28;20259;-69
2023/04/10 16:59:24;;;;;;;1.93;1.67;;;12.40;99.90;14.00;100730.00;;;;5068555;28;20186;-69
2023/04/10 17:02:15;;;;;;;0.70;0.70;;;12.40;99.90;14.30;100765.00;;;;5061419;28;20758;-68
2023/04/10 17:05:01;;;;;;;0.70;0.60;;;12.40;99.90;14.20;100757.00;;;;5064062;28;20191;-68
2023/04/10 17:07:52;;;;;;;0.43;0.43;;;12.30;99.90;14.90;100742.00;;;;5062085;28;20197;-69
2023/04/10 17:10:40;;;;;;;0.50;0.50;;;12.50;99.90;15.20;100737.00;;;;5065852;28;20208;-69
2023/04/10 17:13:41;;;;;;;6.33;3.07;;;12.70;99.90;14.50;100728.00;;;;5065700;28;20203;-69
2023/04/10 17:16:42;;;;;;;0.70;0.70;;;12.50;99.90;14.20;100740.00;;;;5054355;28;20188;-69
2023/04/10 17:19:53;;;;;;;0.40;0.40;;;12.40;99.90;14.40;100735.00;;;;5066592;28;20703;-70
2023/04/10 17:22:56;;;;;;;1.37;1.27;;;12.40;99.90;14.20;100690.00;;;;5066031;28;20200;-69
2023/04/10 17:25:22;;;;;;;0.90;0.90;;;12.40;99.90;14.00;100679.00;;;;5059387;28;20205;-69
2023/04/10 17:28:37;;;;;;;2.07;1.70;;;12.30;99.90;14.30;100709.00;;;;5051677;28;20196;-69
2023/04/10 17:31:47;;;;;;;0.70;0.70;;;12.20;99.90;14.20;100690.00;;;;5058398;28;20176;-69
2023/04/10 17:34:47;;;;;;;0.43;0.43;;;12.30;99.90;14.50;100681.00;;;;5066774;28;20659;-69
2023/04/10 17:37:36;;;;;;;0.40;0.40;;;12.40;99.90;14.50;100695.00;;;;5068376;28;20192;-69
2023/04/10 17:40:40;;;;;;;0.50;0.50;;;12.40;99.90;14.20;100690.00;;;;5063132;28;20184;-68
2023/04/10 17:43:44;;;;;;;0.87;0.87;;;12.30;99.90;14.20;100644.00;;;;5057375;28;20197;-68
2023/04/10 17:47:20;;;;;;;0.40;0.40;;;12.40;99.90;13.90;100696.00;;;;5067058;28;20194;-68
2023/04/10 17:50:48;;;;;;;2.20;1.23;;;12.20;99.90;14.10;100688.00;;;;5058930;28;20187;-68
2023/04/10 17:54:14;;;;;;;0.60;0.50;;;12.10;99.90;14.40;100679.00;;;;5064868;28;20210;-69
2023/04/10 17:57:23;;;;;;;0.40;0.40;;;12.20;99.90;14.50;100647.00;;;;5061753;28;20184;-68
2023/04/10 18:00:23;;;;;;;1.03;0.70;;;12.20;99.90;14.10;100678.00;;;;5063678;28;20203;-69
2023/04/10 18:03:12;;;;;;;0.40;0.40;;;12.20;99.90;14.80;100688.00;;;;5062514;28;20207;-69
2023/04/10 18:06:34;;;;;;;0.77;0.77;;;12.40;99.90;14.10;100666.00;;;;5060031;28;20202;-69
2023/04/10 18:09:57;;;;;;;0.97;0.97;;;12.30;99.90;14.20;100645.00;;;;5058288;28;20198;-68
2023/04/10 18:12:32;;;;;;;0.70;0.70;;;12.20;99.90;14.10;100689.00;;;;5066269;28;20220;-69
2023/04/10 18:15:34;;;;;;;0.70;0.70;;;12.20;99.90;14.20;100693.00;;;;5065692;28;20561;-69
2023/04/10 18:18:35;;;;;;;0.80;0.80;;;12.30;99.90;13.70;100699.00;;;;5063441;28;20400;-68
2023/04/10 18:21:33;;;;;;;0.60;0.60;;;12.20;99.90;14.10;100716.00;;;;5064457;28;20206;-68
2023/04/10 18:24:39;;;;;;;1.17;1.13;;;12.10;99.90;15.00;100722.00;;;;5073007;28;20196;-68
2023/04/10 18:27:41;;;;;;;0.50;0.50;;;12.40;99.90;15.00;100683.00;;;;5053682;28;20278;-68
2023/04/10 18:31:05;;;;;;;0.60;0.60;;;12.50;99.90;16.10;100657.00;;;;5083965;28;20546;-69
2023/04/10 18:34:09;;;;;;;0.80;0.80;;;12.80;99.90;15.90;100604.00;;;;5060775;28;20214;-69
2023/04/10 18:37:15;;;;;;;2.60;2.40;;;13.00;99.90;15.40;100660.00;;;;5054899;28;20185;-68
2023/04/10 18:43:15;;;;;;;0.80;0.80;;;12.90;99.90;15.30;100658.00;;;;5061870;28;20205;-69
2023/04/10 18:46:26;;;;;;;1.73;1.60;;;13.00;99.90;14.80;100686.00;;;;5063069;28;20213;-69
2023/04/10 18:49:18;;;;;;;0.70;0.70;;;12.70;99.90;15.00;100697.00;;;;5056014;28;20187;-69
2023/04/10 18:52:09;;;;;;;0.70;0.70;;;12.50;99.90;14.40;100676.00;;;;5048036;28;20217;-69
2023/04/10 18:55:08;;;;;;;0.60;0.60;;;12.50;99.90;14.70;100696.00;;;;5066831;28;20611;-69
2023/04/10 18:58:14;;;;;;;0.60;0.60;;;12.50;99.90;14.50;100681.00;;;;5063662;28;20193;-68
2023/04/10 19:01:06;;;;;;;0.60;0.60;;;12.30;99.90;14.40;100680.00;;;;5048644;28;20188;-69
2023/04/10 19:03:54;;;;;;;0.73;0.73;;;12.30;99.90;14.50;100672.00;;;;5035538;28;20201;-69
2023/04/10 19:06:52;;;;;;;0.60;0.60;;;12.40;99.90;14.70;100666.00;;;;5058686;28;20202;-69
2023/04/10 19:09:57;;;;;;;0.73;0.57;;;12.40;99.90;14.30;100630.00;;;;5067728;28;20210;-69
2023/04/10 19:12:34;;;;;;;0.70;0.70;;;12.30;99.90;14.10;100669.00;;;;5068543;28;20282;-69
2023/04/10 19:15:10;;;;;;;0.50;0.50;;;12.10;99.90;14.80;100680.00;;;;5070132;28;20181;-68
2023/04/10 19:18:19;;;;;;;0.50;0.50;;;12.20;99.90;14.50;100678.00;;;;5066320;28;20239;-69
2023/04/10 19:21:30;;;;;;;0.70;0.70;;;12.10;99.90;14.30;100681.00;;;;5067661;28;20187;-69
2023/04/10 19:24:41;;;;;;;0.90;0.90;;;12.20;99.90;13.80;100683.00;;;;5024365;28;20200;-69
2023/04/10 19:27:35;;;;;;;1.30;1.20;;;11.90;99.90;13.50;100680.00;;;;5047909;28;20190;-69
2023/04/10 19:31:01;;;;;;;0.50;0.50;;;11.90;99.90;14.20;100689.00;;;;5054041;28;20662;-68
2023/04/10 19:33:56;;;;;;;0.60;0.60;;;12.00;99.90;14.10;100644.00;;;;5065693;28;20217;-69
2023/04/10 19:37:03;;;;;;;1.40;1.03;;;12.20;99.90;14.10;100679.00;;;;5061537;28;20197;-69
2023/04/10 19:39:59;;;;;;;1.40;1.30;;;12.10;99.90;14.20;100660.00;;;;5070022;28;20207;-69
2023/04/10 19:42:54;;;;;;;0.50;0.50;;;12.00;99.90;14.80;100665.00;;;;5048305;28;20201;-69
2023/04/10 19:45:48;;;;;;;0.87;0.87;;;12.20;99.90;14.30;100677.00;;;;5064446;28;20214;-69
2023/04/10 19:48:23;;;;;;;1.37;1.37;;;12.20;99.90;15.20;100668.00;;;;5058500;28;20735;-69
2023/04/10 19:51:39;;;;;;;1.70;1.27;;;12.40;99.90;13.60;100648.00;;;;5063812;28;20724;-69